sensor_id;sensor_type;location;lat;lon;timestamp;P1;durP1;ratioP1;P2;durP2;ratioP2
67429;SDS011;54298;52.076;5.264;2023-12-28T00:02:21;4.1;;;2.0;;
67429;SDS011;54298;52.076;5.264;2023-12-28T00:03:58;7.4;;;1.7;;
67429;SDS011;54298;52.076;5.264;2023-12-28T00:05:34;4.41;;;2.1;;
67429;SDS011;54298;52.076;5.264;2023-12-28T00:07:10;3.1;;;1.8;;
67429;SDS011;54298;52.076;5.264;2023-12-28T00:10:22;4.8;;;2.31;;
67429;SDS011;54298;52.076;5.264;2023-12-28T00:11:59;4.7;;;2.1;;
67429;SDS011;54298;52.076;5.264;2023-12-28T00:13:35;4.91;;;1.8;;
67429;SDS011;54298;52.076;5.264;2023-12-28T00:16:47;3.1;;;1.5;;
67429;SDS011;54298;52.076;5.264;2023-12-28T00:18:23;5.9;;;2.0;;
67429;SDS011;54298;52.076;5.264;2023-12-28T00:20:00;6.8;;;2.0;;
67429;SDS011;54298;52.076;5.264;2023-12-28T00:23:12;3.1;;;1.7;;
67429;SDS011;54298;52.076;5.264;2023-12-28T00:24:48;3.5;;;1.8;;
67429;SDS011;54298;52.076;5.264;2023-12-28T00:26:24;2.8;;;1.6;;
67429;SDS011;54298;52.076;5.264;2023-12-28T00:28:00;5.4;;;2.0;;
67429;SDS011;54298;52.076;5.264;2023-12-28T00:31:12;4.7;;;1.9;;
67429;SDS011;54298;52.076;5.264;2023-12-28T00:32:48;4.2;;;1.9;;
67429;SDS011;54298;52.076;5.264;2023-12-28T00:34:24;5.3;;;2.31;;
67429;SDS011;54298;52.076;5.264;2023-12-28T00:37:37;5.11;;;2.0;;
67429;SDS011;54298;52.076;5.264;2023-12-28T00:39:14;3.9;;;1.7;;
67429;SDS011;54298;52.076;5.264;2023-12-28T00:40:50;3.4;;;2.0;;
67429;SDS011;54298;52.076;5.264;2023-12-28T00:44:02;3.0;;;1.9;;
67429;SDS011;54298;52.076;5.264;2023-12-28T00:45:41;5.0;;;1.6;;
67429;SDS011;54298;52.076;5.264;2023-12-28T00:47:17;3.8;;;1.6;;
67429;SDS011;54298;52.076;5.264;2023-12-28T00:48:53;5.5;;;2.0;;
67429;SDS011;54298;52.076;5.264;2023-12-28T00:52:06;3.1;;;1.7;;
67429;SDS011;54298;52.076;5.264;2023-12-28T00:53:42;4.5;;;1.9;;
67429;SDS011;54298;52.076;5.264;2023-12-28T00:55:18;5.5;;;1.9;;
67429;SDS011;54298;52.076;5.264;2023-12-28T00:58:30;3.4;;;1.7;;
67429;SDS011;54298;52.076;5.264;2023-12-28T01:00:07;4.61;;;1.9;;
67429;SDS011;54298;52.076;5.264;2023-12-28T01:01:43;2.0;;;1.5;;
67429;SDS011;54298;52.076;5.264;2023-12-28T01:04:55;4.5;;;1.8;;
67429;SDS011;54298;52.076;5.264;2023-12-28T01:06:31;4.3;;;1.9;;
67429;SDS011;54298;52.076;5.264;2023-12-28T01:08:08;2.9;;;1.6;;
67429;SDS011;54298;52.076;5.264;2023-12-28T01:11:20;5.3;;;2.0;;
67429;SDS011;54298;52.076;5.264;2023-12-28T01:12:57;2.31;;;1.3;;
67429;SDS011;54298;52.076;5.264;2023-12-28T01:14:33;4.61;;;1.9;;
67429;SDS011;54298;52.076;5.264;2023-12-28T01:16:09;4.61;;;1.9;;
67429;SDS011;54298;52.076;5.264;2023-12-28T01:19:24;3.6;;;1.9;;
67429;SDS011;54298;52.076;5.264;2023-12-28T01:21:00;3.9;;;1.7;;
67429;SDS011;54298;52.076;5.264;2023-12-28T01:22:37;2.7;;;1.6;;
67429;SDS011;54298;52.076;5.264;2023-12-28T01:25:49;3.6;;;1.6;;
67429;SDS011;54298;52.076;5.264;2023-12-28T01:27:25;3.0;;;1.7;;
67429;SDS011;54298;52.076;5.264;2023-12-28T01:29:01;3.3;;;1.9;;
67429;SDS011;54298;52.076;5.264;2023-12-28T01:32:13;3.6;;;1.6;;
67429;SDS011;54298;52.076;5.264;2023-12-28T01:35:25;4.91;;;1.8;;
67429;SDS011;54298;52.076;5.264;2023-12-28T01:37:02;5.3;;;1.8;;
67429;SDS011;54298;52.076;5.264;2023-12-28T01:40:15;4.0;;;1.9;;
67429;SDS011;54298;52.076;5.264;2023-12-28T01:41:51;3.2;;;1.7;;
67429;SDS011;54298;52.076;5.264;2023-12-28T01:43:27;3.5;;;1.9;;
67429;SDS011;54298;52.076;5.264;2023-12-28T01:46:40;5.0;;;1.9;;
67429;SDS011;54298;52.076;5.264;2023-12-28T01:48:17;4.3;;;1.8;;
67429;SDS011;54298;52.076;5.264;2023-12-28T01:49:53;4.91;;;2.0;;
67429;SDS011;54298;52.076;5.264;2023-12-28T01:53:10;3.6;;;1.8;;
67429;SDS011;54298;52.076;5.264;2023-12-28T01:54:48;3.4;;;1.8;;
67429;SDS011;54298;52.076;5.264;2023-12-28T01:56:25;2.5;;;1.5;;
67429;SDS011;54298;52.076;5.264;2023-12-28T01:58:02;3.8;;;2.1;;
67429;SDS011;54298;52.076;5.264;2023-12-28T02:01:15;5.5;;;2.1;;
67429;SDS011;54298;52.076;5.264;2023-12-28T02:02:52;4.8;;;2.1;;
67429;SDS011;54298;52.076;5.264;2023-12-28T02:04:29;3.2;;;1.9;;
67429;SDS011;54298;52.076;5.264;2023-12-28T02:07:42;3.6;;;2.1;;
67429;SDS011;54298;52.076;5.264;2023-12-28T02:09:18;5.0;;;1.9;;
67429;SDS011;54298;52.076;5.264;2023-12-28T02:10:55;3.2;;;1.9;;
67429;SDS011;54298;52.076;5.264;2023-12-28T02:14:07;6.4;;;1.9;;
67429;SDS011;54298;52.076;5.264;2023-12-28T02:15:43;3.3;;;1.7;;
67429;SDS011;54298;52.076;5.264;2023-12-28T02:17:28;4.41;;;2.21;;
67429;SDS011;54298;52.076;5.264;2023-12-28T02:19:10;6.3;;;1.9;;
67429;SDS011;54298;52.076;5.264;2023-12-28T02:20:58;7.5;;;2.0;;
67429;SDS011;54298;52.076;5.264;2023-12-28T02:24:13;5.9;;;2.31;;
67429;SDS011;54298;52.076;5.264;2023-12-28T02:25:50;4.8;;;1.8;;
67429;SDS011;54298;52.076;5.264;2023-12-28T02:27:26;6.5;;;2.31;;
67429;SDS011;54298;52.076;5.264;2023-12-28T02:30:39;5.3;;;1.8;;
67429;SDS011;54298;52.076;5.264;2023-12-28T02:32:15;4.41;;;2.0;;
67429;SDS011;54298;52.076;5.264;2023-12-28T02:33:57;7.8;;;1.5;;
67429;SDS011;54298;52.076;5.264;2023-12-28T02:35:41;6.2;;;1.9;;
67429;SDS011;54298;52.076;5.264;2023-12-28T02:38:58;3.8;;;1.9;;
67429;SDS011;54298;52.076;5.264;2023-12-28T02:40:36;3.1;;;1.7;;
67429;SDS011;54298;52.076;5.264;2023-12-28T02:42:14;6.1;;;1.8;;
67429;SDS011;54298;52.076;5.264;2023-12-28T02:45:27;7.9;;;2.1;;
67429;SDS011;54298;52.076;5.264;2023-12-28T02:47:03;6.0;;;1.8;;
67429;SDS011;54298;52.076;5.264;2023-12-28T02:48:39;8.0;;;2.1;;
67429;SDS011;54298;52.076;5.264;2023-12-28T02:50:15;4.91;;;1.8;;
67429;SDS011;54298;52.076;5.264;2023-12-28T02:53:27;4.3;;;1.7;;
67429;SDS011;54298;52.076;5.264;2023-12-28T02:55:04;3.2;;;1.5;;
67429;SDS011;54298;52.076;5.264;2023-12-28T02:56:40;6.6;;;1.9;;
67429;SDS011;54298;52.076;5.264;2023-12-28T02:59:53;3.7;;;1.6;;
67429;SDS011;54298;52.076;5.264;2023-12-28T03:01:29;4.0;;;1.7;;
67429;SDS011;54298;52.076;5.264;2023-12-28T03:03:05;4.0;;;1.4;;
67429;SDS011;54298;52.076;5.264;2023-12-28T03:06:17;4.0;;;1.4;;
67429;SDS011;54298;52.076;5.264;2023-12-28T03:07:53;6.7;;;1.9;;
67429;SDS011;54298;52.076;5.264;2023-12-28T03:09:29;3.3;;;1.7;;
67429;SDS011;54298;52.076;5.264;2023-12-28T03:12:41;5.3;;;1.9;;
67429;SDS011;54298;52.076;5.264;2023-12-28T03:14:18;4.7;;;1.8;;
67429;SDS011;54298;52.076;5.264;2023-12-28T03:15:54;4.41;;;1.6;;
67429;SDS011;54298;52.076;5.264;2023-12-28T03:17:31;5.8;;;1.9;;
67429;SDS011;54298;52.076;5.264;2023-12-28T03:20:43;6.2;;;1.9;;
67429;SDS011;54298;52.076;5.264;2023-12-28T03:22:19;3.6;;;1.8;;
67429;SDS011;54298;52.076;5.264;2023-12-28T03:23:55;5.9;;;1.9;;
67429;SDS011;54298;52.076;5.264;2023-12-28T03:27:07;6.5;;;1.6;;
67429;SDS011;54298;52.076;5.264;2023-12-28T03:28:44;5.5;;;1.8;;
67429;SDS011;54298;52.076;5.264;2023-12-28T03:30:20;4.0;;;1.9;;
67429;SDS011;54298;52.076;5.264;2023-12-28T03:33:32;4.3;;;1.7;;
67429;SDS011;54298;52.076;5.264;2023-12-28T03:35:08;3.2;;;1.6;;
67429;SDS011;54298;52.076;5.264;2023-12-28T03:36:44;5.0;;;1.8;;
67429;SDS011;54298;52.076;5.264;2023-12-28T03:38:20;6.1;;;1.8;;
67429;SDS011;54298;52.076;5.264;2023-12-28T03:41:32;8.2;;;2.1;;
67429;SDS011;54298;52.076;5.264;2023-12-28T03:43:08;13.6;;;2.1;;
67429;SDS011;54298;52.076;5.264;2023-12-28T03:44:45;7.4;;;2.7;;
67429;SDS011;54298;52.076;5.264;2023-12-28T03:47:57;5.3;;;2.31;;
67429;SDS011;54298;52.076;5.264;2023-12-28T03:49:33;5.5;;;1.9;;
67429;SDS011;54298;52.076;5.264;2023-12-28T03:51:13;4.0;;;1.6;;
67429;SDS011;54298;52.076;5.264;2023-12-28T03:54:25;4.91;;;1.7;;
67429;SDS011;54298;52.076;5.264;2023-12-28T03:56:01;4.41;;;1.8;;
67429;SDS011;54298;52.076;5.264;2023-12-28T03:57:38;4.2;;;1.7;;
67429;SDS011;54298;52.076;5.264;2023-12-28T03:59:14;7.4;;;2.21;;
67429;SDS011;54298;52.076;5.264;2023-12-28T04:02:28;3.8;;;1.7;;
67429;SDS011;54298;52.076;5.264;2023-12-28T04:04:04;6.7;;;2.21;;
67429;SDS011;54298;52.076;5.264;2023-12-28T04:05:40;3.2;;;1.7;;
67429;SDS011;54298;52.076;5.264;2023-12-28T04:08:52;3.6;;;1.8;;
67429;SDS011;54298;52.076;5.264;2023-12-28T04:10:29;5.7;;;2.1;;
67429;SDS011;54298;52.076;5.264;2023-12-28T04:12:05;7.6;;;2.1;;
67429;SDS011;54298;52.076;5.264;2023-12-28T04:15:17;4.41;;;1.8;;
67429;SDS011;54298;52.076;5.264;2023-12-28T04:16:54;3.9;;;1.8;;
67429;SDS011;54298;52.076;5.264;2023-12-28T04:18:30;8.6;;;2.21;;
67429;SDS011;54298;52.076;5.264;2023-12-28T04:21:43;6.1;;;1.9;;
67429;SDS011;54298;52.076;5.264;2023-12-28T04:23:19;8.0;;;2.31;;
67429;SDS011;54298;52.076;5.264;2023-12-28T04:24:55;6.0;;;2.31;;
67429;SDS011;54298;52.076;5.264;2023-12-28T04:26:31;5.9;;;2.0;;
67429;SDS011;54298;52.076;5.264;2023-12-28T04:29:46;10.5;;;2.5;;
67429;SDS011;54298;52.076;5.264;2023-12-28T04:31:22;7.2;;;2.1;;
67429;SDS011;54298;52.076;5.264;2023-12-28T04:32:59;4.0;;;2.0;;
67429;SDS011;54298;52.076;5.264;2023-12-28T04:36:12;6.1;;;2.4;;
67429;SDS011;54298;52.076;5.264;2023-12-28T04:37:48;6.1;;;2.4;;
67429;SDS011;54298;52.076;5.264;2023-12-28T04:39:24;7.1;;;2.4;;
67429;SDS011;54298;52.076;5.264;2023-12-28T04:42:37;5.9;;;2.21;;
67429;SDS011;54298;52.076;5.264;2023-12-28T04:44:13;4.2;;;2.21;;
67429;SDS011;54298;52.076;5.264;2023-12-28T04:45:49;4.91;;;2.1;;
67429;SDS011;54298;52.076;5.264;2023-12-28T04:47:25;6.3;;;2.21;;
67429;SDS011;54298;52.076;5.264;2023-12-28T04:50:38;14.4;;;2.31;;
67429;SDS011;54298;52.076;5.264;2023-12-28T04:52:14;13.4;;;2.31;;
67429;SDS011;54298;52.076;5.264;2023-12-28T04:53:50;6.5;;;2.31;;
67429;SDS011;54298;52.076;5.264;2023-12-28T04:57:02;5.6;;;2.1;;
67429;SDS011;54298;52.076;5.264;2023-12-28T04:58:39;6.5;;;2.21;;
67429;SDS011;54298;52.076;5.264;2023-12-28T05:00:15;5.9;;;2.1;;
67429;SDS011;54298;52.076;5.264;2023-12-28T05:03:28;5.4;;;2.21;;
67429;SDS011;54298;52.076;5.264;2023-12-28T05:05:05;6.9;;;2.21;;
67429;SDS011;54298;52.076;5.264;2023-12-28T05:06:41;7.8;;;2.21;;
67429;SDS011;54298;52.076;5.264;2023-12-28T05:08:17;5.4;;;2.6;;
67429;SDS011;54298;52.076;5.264;2023-12-28T05:11:30;6.0;;;2.21;;
67429;SDS011;54298;52.076;5.264;2023-12-28T05:13:06;6.4;;;2.5;;
67429;SDS011;54298;52.076;5.264;2023-12-28T05:14:42;9.31;;;2.4;;
67429;SDS011;54298;52.076;5.264;2023-12-28T05:17:54;9.5;;;2.4;;
67429;SDS011;54298;52.076;5.264;2023-12-28T05:19:30;5.7;;;2.0;;
67429;SDS011;54298;52.076;5.264;2023-12-28T05:21:06;5.4;;;2.1;;
67429;SDS011;54298;52.076;5.264;2023-12-28T05:24:18;13.6;;;2.9;;
67429;SDS011;54298;52.076;5.264;2023-12-28T05:25:55;7.1;;;2.7;;
67429;SDS011;54298;52.076;5.264;2023-12-28T05:27:31;7.5;;;2.21;;
67429;SDS011;54298;52.076;5.264;2023-12-28T05:30:43;6.2;;;2.6;;
67429;SDS011;54298;52.076;5.264;2023-12-28T05:32:19;8.6;;;2.5;;
67429;SDS011;54298;52.076;5.264;2023-12-28T05:33:55;6.9;;;2.4;;
67429;SDS011;54298;52.076;5.264;2023-12-28T05:35:31;11.9;;;2.31;;
67429;SDS011;54298;52.076;5.264;2023-12-28T05:38:43;6.9;;;2.4;;
67429;SDS011;54298;52.076;5.264;2023-12-28T05:40:19;9.6;;;2.9;;
67429;SDS011;54298;52.076;5.264;2023-12-28T05:41:55;6.7;;;2.31;;
67429;SDS011;54298;52.076;5.264;2023-12-28T05:45:08;13.6;;;2.8;;
67429;SDS011;54298;52.076;5.264;2023-12-28T05:46:45;11.2;;;3.1;;
67429;SDS011;54298;52.076;5.264;2023-12-28T05:48:24;9.4;;;3.1;;
67429;SDS011;54298;52.076;5.264;2023-12-28T05:51:37;10.4;;;3.3;;
67429;SDS011;54298;52.076;5.264;2023-12-28T05:53:14;7.8;;;2.8;;
67429;SDS011;54298;52.076;5.264;2023-12-28T05:54:50;9.21;;;2.6;;
67429;SDS011;54298;52.076;5.264;2023-12-28T05:56:26;8.4;;;2.8;;
67429;SDS011;54298;52.076;5.264;2023-12-28T05:59:42;8.9;;;2.9;;
67429;SDS011;54298;52.076;5.264;2023-12-28T06:01:18;12.4;;;2.5;;
67429;SDS011;54298;52.076;5.264;2023-12-28T06:02:54;6.9;;;2.8;;
67429;SDS011;54298;52.076;5.264;2023-12-28T06:06:06;6.4;;;2.4;;
67429;SDS011;54298;52.076;5.264;2023-12-28T06:07:42;11.7;;;2.8;;
67429;SDS011;54298;52.076;5.264;2023-12-28T06:09:18;10.9;;;3.3;;
67429;SDS011;54298;52.076;5.264;2023-12-28T06:12:33;9.31;;;2.5;;
67429;SDS011;54298;52.076;5.264;2023-12-28T06:14:09;9.31;;;2.5;;
67429;SDS011;54298;52.076;5.264;2023-12-28T06:15:45;11.7;;;2.6;;
67429;SDS011;54298;52.076;5.264;2023-12-28T06:17:21;7.0;;;3.0;;
67429;SDS011;54298;52.076;5.264;2023-12-28T06:20:34;10.4;;;3.4;;
67429;SDS011;54298;52.076;5.264;2023-12-28T06:22:10;8.2;;;3.0;;
67429;SDS011;54298;52.076;5.264;2023-12-28T06:23:46;8.71;;;2.7;;
67429;SDS011;54298;52.076;5.264;2023-12-28T06:26:59;13.5;;;3.1;;
67429;SDS011;54298;52.076;5.264;2023-12-28T06:28:35;10.21;;;3.3;;
67429;SDS011;54298;52.076;5.264;2023-12-28T06:30:12;7.5;;;2.9;;
67429;SDS011;54298;52.076;5.264;2023-12-28T06:33:24;11.5;;;2.7;;
67429;SDS011;54298;52.076;5.264;2023-12-28T06:35:01;10.4;;;3.3;;
67429;SDS011;54298;52.076;5.264;2023-12-28T06:36:37;10.4;;;3.3;;
67429;SDS011;54298;52.076;5.264;2023-12-28T06:39:49;8.4;;;2.6;;
67429;SDS011;54298;52.076;5.264;2023-12-28T06:41:25;9.4;;;2.9;;
67429;SDS011;54298;52.076;5.264;2023-12-28T06:43:02;11.9;;;3.2;;
67429;SDS011;54298;52.076;5.264;2023-12-28T06:44:38;8.5;;;3.0;;
67429;SDS011;54298;52.076;5.264;2023-12-28T06:47:50;10.7;;;3.2;;
67429;SDS011;54298;52.076;5.264;2023-12-28T06:49:26;10.7;;;3.2;;
67429;SDS011;54298;52.076;5.264;2023-12-28T06:51:03;11.9;;;3.5;;
67429;SDS011;54298;52.076;5.264;2023-12-28T06:54:15;11.0;;;3.4;;
67429;SDS011;54298;52.076;5.264;2023-12-28T06:55:50;11.2;;;3.1;;
67429;SDS011;54298;52.076;5.264;2023-12-28T06:57:26;12.6;;;4.2;;
67429;SDS011;54298;52.076;5.264;2023-12-28T07:00:38;7.3;;;3.1;;
67429;SDS011;54298;52.076;5.264;2023-12-28T07:02:14;10.5;;;3.3;;
67429;SDS011;54298;52.076;5.264;2023-12-28T07:03:50;8.71;;;3.0;;
67429;SDS011;54298;52.076;5.264;2023-12-28T07:05:27;13.9;;;3.5;;
67429;SDS011;54298;52.076;5.264;2023-12-28T07:08:39;8.9;;;3.3;;
67429;SDS011;54298;52.076;5.264;2023-12-28T07:10:16;12.1;;;3.3;;
67429;SDS011;54298;52.076;5.264;2023-12-28T07:11:52;9.0;;;3.0;;
67429;SDS011;54298;52.076;5.264;2023-12-28T07:15:04;12.1;;;3.2;;
67429;SDS011;54298;52.076;5.264;2023-12-28T07:16:41;12.8;;;3.5;;
67429;SDS011;54298;52.076;5.264;2023-12-28T07:18:17;8.9;;;3.2;;
67429;SDS011;54298;52.076;5.264;2023-12-28T07:21:29;9.6;;;3.2;;
67429;SDS011;54298;52.076;5.264;2023-12-28T07:23:05;13.1;;;3.5;;
67429;SDS011;54298;52.076;5.264;2023-12-28T07:24:41;14.2;;;4.91;;
67429;SDS011;54298;52.076;5.264;2023-12-28T07:27:54;16.8;;;7.0;;
67429;SDS011;54298;52.076;5.264;2023-12-28T07:29:30;26.4;;;10.1;;
67429;SDS011;54298;52.076;5.264;2023-12-28T07:31:06;17.61;;;5.5;;
67429;SDS011;54298;52.076;5.264;2023-12-28T07:32:42;25.6;;;9.31;;
67429;SDS011;54298;52.076;5.264;2023-12-28T07:35:54;18.91;;;6.2;;
67429;SDS011;54298;52.076;5.264;2023-12-28T07:37:30;11.9;;;3.9;;
67429;SDS011;54298;52.076;5.264;2023-12-28T07:39:06;13.1;;;4.3;;
67429;SDS011;54298;52.076;5.264;2023-12-28T07:42:21;13.5;;;4.3;;
67429;SDS011;54298;52.076;5.264;2023-12-28T07:43:58;14.3;;;4.5;;
67429;SDS011;54298;52.076;5.264;2023-12-28T07:45:34;13.5;;;4.7;;
67429;SDS011;54298;52.076;5.264;2023-12-28T07:48:46;12.2;;;4.1;;
67429;SDS011;54298;52.076;5.264;2023-12-28T07:50:22;13.7;;;4.5;;
67429;SDS011;54298;52.076;5.264;2023-12-28T07:52:01;24.8;;;8.9;;
67429;SDS011;54298;52.076;5.264;2023-12-28T07:53:37;25.5;;;10.4;;
67429;SDS011;54298;52.076;5.264;2023-12-28T07:56:50;16.61;;;5.8;;
67429;SDS011;54298;52.076;5.264;2023-12-28T07:58:26;16.5;;;5.3;;
67429;SDS011;54298;52.076;5.264;2023-12-28T08:00:03;10.21;;;3.5;;
67429;SDS011;54298;52.076;5.264;2023-12-28T08:03:16;9.31;;;3.4;;
67429;SDS011;54298;52.076;5.264;2023-12-28T08:04:52;15.4;;;4.61;;
67429;SDS011;54298;52.076;5.264;2023-12-28T08:06:28;10.7;;;3.4;;
67429;SDS011;54298;52.076;5.264;2023-12-28T08:09:40;11.8;;;4.5;;
67429;SDS011;54298;52.076;5.264;2023-12-28T08:11:16;14.6;;;5.4;;
67429;SDS011;54298;52.076;5.264;2023-12-28T08:12:52;23.7;;;9.31;;
67429;SDS011;54298;52.076;5.264;2023-12-28T08:14:32;19.2;;;5.11;;
67429;SDS011;54298;52.076;5.264;2023-12-28T08:17:44;22.8;;;6.3;;
67429;SDS011;54298;52.076;5.264;2023-12-28T08:19:20;10.4;;;3.9;;
67429;SDS011;54298;52.076;5.264;2023-12-28T08:20:56;18.61;;;5.5;;
67429;SDS011;54298;52.076;5.264;2023-12-28T08:24:08;14.2;;;3.6;;
67429;SDS011;54298;52.076;5.264;2023-12-28T08:25:45;10.5;;;4.41;;
67429;SDS011;54298;52.076;5.264;2023-12-28T08:27:20;10.9;;;4.8;;
67429;SDS011;54298;52.076;5.264;2023-12-28T08:30:32;11.0;;;3.9;;
67429;SDS011;54298;52.076;5.264;2023-12-28T08:32:08;18.91;;;4.41;;
67429;SDS011;54298;52.076;5.264;2023-12-28T08:33:44;22.5;;;6.0;;
67429;SDS011;54298;52.076;5.264;2023-12-28T08:36:56;16.9;;;6.0;;
67429;SDS011;54298;52.076;5.264;2023-12-28T08:38:32;15.6;;;6.1;;
67429;SDS011;54298;52.076;5.264;2023-12-28T08:40:09;15.2;;;4.8;;
67429;SDS011;54298;52.076;5.264;2023-12-28T08:41:45;16.61;;;5.11;;
67429;SDS011;54298;52.076;5.264;2023-12-28T08:44:58;16.3;;;5.3;;
67429;SDS011;54298;52.076;5.264;2023-12-28T08:46:34;18.8;;;6.0;;
67429;SDS011;54298;52.076;5.264;2023-12-28T08:48:10;17.3;;;4.1;;
67429;SDS011;54298;52.076;5.264;2023-12-28T08:51:22;15.3;;;5.5;;
67429;SDS011;54298;52.076;5.264;2023-12-28T08:52:58;13.8;;;3.7;;
67429;SDS011;54298;52.076;5.264;2023-12-28T08:54:34;13.0;;;3.8;;
67429;SDS011;54298;52.076;5.264;2023-12-28T08:57:51;13.7;;;4.5;;
67429;SDS011;54298;52.076;5.264;2023-12-28T08:59:29;10.4;;;3.7;;
67429;SDS011;54298;52.076;5.264;2023-12-28T09:01:05;12.1;;;3.8;;
67429;SDS011;54298;52.076;5.264;2023-12-28T09:02:41;16.0;;;4.8;;
67429;SDS011;54298;52.076;5.264;2023-12-28T09:05:53;13.0;;;3.8;;
67429;SDS011;54298;52.076;5.264;2023-12-28T09:07:29;15.4;;;3.9;;
67429;SDS011;54298;52.076;5.264;2023-12-28T09:09:05;13.0;;;4.1;;
67429;SDS011;54298;52.076;5.264;2023-12-28T09:12:20;20.41;;;6.4;;
67429;SDS011;54298;52.076;5.264;2023-12-28T09:13:56;14.4;;;4.2;;
67429;SDS011;54298;52.076;5.264;2023-12-28T09:15:33;11.4;;;4.5;;
67429;SDS011;54298;52.076;5.264;2023-12-28T09:18:45;15.0;;;4.2;;
67429;SDS011;54298;52.076;5.264;2023-12-28T09:20:21;15.7;;;5.3;;
67429;SDS011;54298;52.076;5.264;2023-12-28T09:21:57;14.5;;;4.3;;
67429;SDS011;54298;52.076;5.264;2023-12-28T09:23:33;22.1;;;5.2;;
67429;SDS011;54298;52.076;5.264;2023-12-28T09:26:46;17.11;;;5.3;;
67429;SDS011;54298;52.076;5.264;2023-12-28T09:28:22;12.2;;;4.41;;
67429;SDS011;54298;52.076;5.264;2023-12-28T09:29:59;19.61;;;9.0;;
67429;SDS011;54298;52.076;5.264;2023-12-28T09:33:11;16.3;;;4.2;;
67429;SDS011;54298;52.076;5.264;2023-12-28T09:34:47;18.2;;;5.3;;
67429;SDS011;54298;52.076;5.264;2023-12-28T09:36:23;17.11;;;6.0;;
67429;SDS011;54298;52.076;5.264;2023-12-28T09:39:35;22.0;;;5.6;;
67429;SDS011;54298;52.076;5.264;2023-12-28T09:41:12;13.2;;;5.11;;
67429;SDS011;54298;52.076;5.264;2023-12-28T09:42:51;14.4;;;3.6;;
67429;SDS011;54298;52.076;5.264;2023-12-28T09:44:46;18.8;;;4.41;;
67429;SDS011;54298;52.076;5.264;2023-12-28T09:47:59;12.4;;;3.6;;
67429;SDS011;54298;52.076;5.264;2023-12-28T09:49:35;12.9;;;3.7;;
67429;SDS011;54298;52.076;5.264;2023-12-28T09:51:13;22.0;;;6.2;;
67429;SDS011;54298;52.076;5.264;2023-12-28T09:52:49;13.5;;;5.4;;
67429;SDS011;54298;52.076;5.264;2023-12-28T09:56:02;15.7;;;5.0;;
67429;SDS011;54298;52.076;5.264;2023-12-28T09:57:38;20.41;;;8.5;;
67429;SDS011;54298;52.076;5.264;2023-12-28T09:59:15;16.8;;;4.8;;
67429;SDS011;54298;52.076;5.264;2023-12-28T10:02:30;15.6;;;5.2;;
67429;SDS011;54298;52.076;5.264;2023-12-28T10:04:07;14.0;;;5.0;;
67429;SDS011;54298;52.076;5.264;2023-12-28T10:05:43;41.5;;;17.11;;
67429;SDS011;54298;52.076;5.264;2023-12-28T10:08:57;27.0;;;10.0;;
67429;SDS011;54298;52.076;5.264;2023-12-28T10:10:33;30.9;;;9.81;;
67429;SDS011;54298;52.076;5.264;2023-12-28T10:12:09;21.9;;;9.9;;
67429;SDS011;54298;52.076;5.264;2023-12-28T10:13:45;15.5;;;6.8;;
67429;SDS011;54298;52.076;5.264;2023-12-28T10:16:57;17.61;;;4.91;;
67429;SDS011;54298;52.076;5.264;2023-12-28T10:18:34;29.2;;;10.21;;
67429;SDS011;54298;52.076;5.264;2023-12-28T10:20:10;16.9;;;6.6;;
67429;SDS011;54298;52.076;5.264;2023-12-28T10:23:22;21.8;;;7.8;;
67429;SDS011;54298;52.076;5.264;2023-12-28T10:24:58;18.41;;;6.9;;
67429;SDS011;54298;52.076;5.264;2023-12-28T10:26:35;18.3;;;7.5;;
67429;SDS011;54298;52.076;5.264;2023-12-28T10:29:48;21.4;;;8.2;;
67429;SDS011;54298;52.076;5.264;2023-12-28T10:31:23;13.8;;;5.6;;
67429;SDS011;54298;52.076;5.264;2023-12-28T10:33:00;20.11;;;9.1;;
67429;SDS011;54298;52.076;5.264;2023-12-28T10:34:36;19.41;;;6.3;;
67429;SDS011;54298;52.076;5.264;2023-12-28T10:37:51;16.11;;;5.6;;
67429;SDS011;54298;52.076;5.264;2023-12-28T10:39:28;19.91;;;4.7;;
67429;SDS011;54298;52.076;5.264;2023-12-28T10:41:09;22.4;;;6.6;;
67429;SDS011;54298;52.076;5.264;2023-12-28T10:44:27;17.91;;;7.2;;
67429;SDS011;54298;52.076;5.264;2023-12-28T10:46:11;31.1;;;12.3;;
67429;SDS011;54298;52.076;5.264;2023-12-28T10:48:00;20.5;;;10.0;;
67429;SDS011;54298;52.076;5.264;2023-12-28T10:49:41;29.5;;;14.4;;
67429;SDS011;54298;52.076;5.264;2023-12-28T10:53:04;45.6;;;24.5;;
67429;SDS011;54298;52.076;5.264;2023-12-28T10:55:08;20.7;;;6.9;;
67429;SDS011;54298;52.076;5.264;2023-12-28T10:56:59;21.7;;;9.21;;
67429;SDS011;54298;52.076;5.264;2023-12-28T10:58:44;64.91;;;33.21;;
67429;SDS011;54298;52.076;5.264;2023-12-28T11:00:26;19.2;;;6.0;;
67429;SDS011;54298;52.076;5.264;2023-12-28T11:02:09;16.9;;;4.8;;
67429;SDS011;54298;52.076;5.264;2023-12-28T11:05:34;17.41;;;7.9;;
67429;SDS011;54298;52.076;5.264;2023-12-28T11:07:11;17.0;;;6.5;;
67429;SDS011;54298;52.076;5.264;2023-12-28T11:08:50;21.4;;;4.7;;
67429;SDS011;54298;52.076;5.264;2023-12-28T11:10:28;18.8;;;5.4;;
67429;SDS011;54298;52.076;5.264;2023-12-28T11:13:43;26.5;;;8.4;;
67429;SDS011;54298;52.076;5.264;2023-12-28T11:15:20;19.7;;;4.7;;
67429;SDS011;54298;52.076;5.264;2023-12-28T11:16:57;18.2;;;6.0;;
67429;SDS011;54298;52.076;5.264;2023-12-28T11:18:35;28.3;;;9.9;;
67429;SDS011;54298;52.076;5.264;2023-12-28T11:21:49;28.3;;;9.9;;
67429;SDS011;54298;52.076;5.264;2023-12-28T11:23:27;26.1;;;6.7;;
67429;SDS011;54298;52.076;5.264;2023-12-28T11:25:04;16.2;;;5.0;;
67429;SDS011;54298;52.076;5.264;2023-12-28T11:28:16;21.2;;;4.1;;
67429;SDS011;54298;52.076;5.264;2023-12-28T11:29:52;17.41;;;4.5;;
67429;SDS011;54298;52.076;5.264;2023-12-28T11:31:28;13.0;;;4.3;;
67429;SDS011;54298;52.076;5.264;2023-12-28T11:34:45;11.2;;;3.9;;
67429;SDS011;54298;52.076;5.264;2023-12-28T11:36:33;14.1;;;5.0;;
67429;SDS011;54298;52.076;5.264;2023-12-28T11:38:12;21.0;;;5.0;;
67429;SDS011;54298;52.076;5.264;2023-12-28T11:39:52;11.1;;;4.2;;
67429;SDS011;54298;52.076;5.264;2023-12-28T11:43:14;10.7;;;3.6;;
67429;SDS011;54298;52.076;5.264;2023-12-28T11:44:53;14.1;;;4.2;;
67429;SDS011;54298;52.076;5.264;2023-12-28T11:46:30;13.2;;;4.2;;
67429;SDS011;54298;52.076;5.264;2023-12-28T11:48:07;11.6;;;3.9;;
67429;SDS011;54298;52.076;5.264;2023-12-28T11:51:20;15.1;;;4.1;;
67429;SDS011;54298;52.076;5.264;2023-12-28T11:52:56;18.8;;;4.5;;
67429;SDS011;54298;52.076;5.264;2023-12-28T11:54:32;15.7;;;4.3;;
67429;SDS011;54298;52.076;5.264;2023-12-28T11:56:08;11.8;;;3.9;;
67429;SDS011;54298;52.076;5.264;2023-12-28T11:59:24;18.2;;;4.5;;
67429;SDS011;54298;52.076;5.264;2023-12-28T12:01:00;18.41;;;5.0;;
67429;SDS011;54298;52.076;5.264;2023-12-28T12:02:36;15.7;;;4.2;;
67429;SDS011;54298;52.076;5.264;2023-12-28T12:04:12;13.5;;;4.2;;
67429;SDS011;54298;52.076;5.264;2023-12-28T12:07:26;13.6;;;4.2;;
67429;SDS011;54298;52.076;5.264;2023-12-28T12:09:03;16.9;;;4.2;;
67429;SDS011;54298;52.076;5.264;2023-12-28T12:10:39;12.6;;;4.3;;
67429;SDS011;54298;52.076;5.264;2023-12-28T12:13:52;20.3;;;5.9;;
67429;SDS011;54298;52.076;5.264;2023-12-28T12:15:28;17.2;;;5.8;;
67429;SDS011;54298;52.076;5.264;2023-12-28T12:17:04;29.8;;;11.7;;
67429;SDS011;54298;52.076;5.264;2023-12-28T12:20:19;30.5;;;11.6;;
67429;SDS011;54298;52.076;5.264;2023-12-28T12:21:59;30.8;;;11.3;;
67429;SDS011;54298;52.076;5.264;2023-12-28T12:23:35;21.6;;;6.0;;
67429;SDS011;54298;52.076;5.264;2023-12-28T12:25:11;16.7;;;5.3;;
67429;SDS011;54298;52.076;5.264;2023-12-28T12:28:24;14.1;;;4.91;;
67429;SDS011;54298;52.076;5.264;2023-12-28T12:30:01;18.61;;;5.11;;
67429;SDS011;54298;52.076;5.264;2023-12-28T12:31:37;16.0;;;5.5;;
67429;SDS011;54298;52.076;5.264;2023-12-28T12:34:54;16.9;;;5.4;;
67429;SDS011;54298;52.076;5.264;2023-12-28T12:36:30;17.2;;;5.9;;
67429;SDS011;54298;52.076;5.264;2023-12-28T12:38:06;25.2;;;8.71;;
67429;SDS011;54298;52.076;5.264;2023-12-28T12:41:19;11.7;;;4.8;;
67429;SDS011;54298;52.076;5.264;2023-12-28T12:42:55;14.4;;;4.41;;
67429;SDS011;54298;52.076;5.264;2023-12-28T12:44:34;18.3;;;5.0;;
67429;SDS011;54298;52.076;5.264;2023-12-28T12:46:10;11.9;;;6.1;;
67429;SDS011;54298;52.076;5.264;2023-12-28T12:49:24;20.2;;;6.7;;
67429;SDS011;54298;52.076;5.264;2023-12-28T12:51:01;21.2;;;5.4;;
67429;SDS011;54298;52.076;5.264;2023-12-28T12:52:38;21.0;;;6.0;;